Time;durP1;ratioP1;P1;durP2;ratioP2;P2;SDS_P1;SDS_P2;PMS_P1;PMS_P2;Temp;Humidity;BMP_temperature;BMP_pressure;BME280_temperature;BME280_humidity;BME280_pressure;Samples;Min_cycle;Max_cycle;Signal;HPM_P1;HPM_P2
2021/07/17 00:00:46;;;;;;;23.60;13.90;;;21.80;95.00;;;;;;5050642;28;21194;-54
2021/07/17 00:03:13;;;;;;;15.13;12.93;;;21.90;95.10;;;;;;5051320;28;20685;-52
2021/07/17 00:05:40;;;;;;;15.90;14.30;;;21.80;95.10;;;;;;5051322;28;20666;-52
2021/07/17 00:08:07;;;;;;;17.63;15.17;;;21.80;95.20;;;;;;5051487;28;21215;-52
2021/07/17 00:10:40;;;;;;;15.73;13.27;;;21.80;95.20;;;;;;5051502;28;20665;-51
2021/07/17 00:13:07;;;;;;;19.77;16.67;;;21.80;95.20;;;;;;5051722;28;20665;-52
2021/07/17 00:15:37;;;;;;;20.63;15.50;;;21.80;95.20;;;;;;5051201;28;20660;-53
2021/07/17 00:18:05;;;;;;;16.10;14.37;;;21.80;95.20;;;;;;5051637;28;21237;-53
2021/07/17 00:20:32;;;;;;;17.43;15.00;;;21.80;95.10;;;;;;5051531;28;20666;-53
2021/07/17 00:23:00;;;;;;;15.07;13.57;;;21.80;95.00;;;;;;5050795;28;20658;-53
2021/07/17 00:25:27;;;;;;;16.97;15.17;;;21.80;95.00;;;;;;5049953;28;21211;-52
2021/07/17 00:27:55;;;;;;;18.50;16.03;;;21.80;95.00;;;;;;5051483;28;20690;-53
2021/07/17 00:30:22;;;;;;;21.27;16.00;;;21.80;94.90;;;;;;5051063;28;20992;-53
2021/07/17 00:32:50;;;;;;;21.40;16.37;;;21.70;94.80;;;;;;5050807;28;21210;-53
2021/07/17 00:35:18;;;;;;;25.23;18.17;;;21.70;94.80;;;;;;5051471;28;20662;-53
2021/07/17 00:37:45;;;;;;;23.70;18.50;;;21.70;94.80;;;;;;5051501;28;20694;-53
2021/07/17 00:40:13;;;;;;;17.20;15.40;;;21.70;94.80;;;;;;5051414;28;20677;-53
2021/07/17 00:42:41;;;;;;;21.60;16.57;;;21.70;94.80;;;;;;5050957;28;20670;-52
2021/07/17 00:45:09;;;;;;;18.83;15.90;;;21.70;94.80;;;;;;5051280;28;20770;-52
2021/07/17 00:47:36;;;;;;;22.20;16.43;;;21.70;94.80;;;;;;5050892;28;20775;-53
2021/07/17 00:50:06;;;;;;;17.80;15.63;;;21.70;94.80;;;;;;5051262;28;20640;-52
2021/07/17 00:52:33;;;;;;;22.87;17.17;;;21.70;94.80;;;;;;5050590;28;20653;-52
2021/07/17 00:55:00;;;;;;;18.67;16.70;;;21.60;94.80;;;;;;5051543;28;21033;-52
2021/07/17 00:57:27;;;;;;;20.77;16.37;;;21.60;94.90;;;;;;5049767;28;21214;-52
2021/07/17 00:59:55;;;;;;;18.97;15.50;;;21.60;94.90;;;;;;5050902;28;20681;-52
2021/07/17 01:02:23;;;;;;;19.63;16.40;;;21.60;95.00;;;;;;5050853;28;20661;-52
2021/07/17 01:04:50;;;;;;;17.53;15.53;;;21.60;95.00;;;;;;5050693;28;20657;-51
2021/07/17 01:07:19;;;;;;;20.27;17.30;;;21.60;95.00;;;;;;5050255;28;20690;-52
2021/07/17 01:09:46;;;;;;;21.50;18.50;;;21.60;95.00;;;;;;5050791;28;20648;-52
2021/07/17 01:12:14;;;;;;;27.87;18.83;;;21.60;95.00;;;;;;5049152;28;20692;-53
2021/07/17 01:14:41;;;;;;;36.60;19.87;;;21.60;95.10;;;;;;5050386;28;20753;-52
2021/07/17 01:17:08;;;;;;;25.20;18.60;;;21.60;95.00;;;;;;5050562;28;21245;-52
2021/07/17 01:19:35;;;;;;;24.63;19.40;;;21.60;95.10;;;;;;5050395;28;20664;-51
2021/07/17 01:22:04;;;;;;;25.50;21.17;;;21.50;95.00;;;;;;5050459;28;20703;-52
2021/07/17 01:24:31;;;;;;;24.33;18.53;;;21.50;95.10;;;;;;5050811;28;21292;-52
2021/07/17 01:26:58;;;;;;;24.70;17.60;;;21.50;95.10;;;;;;5049369;28;20681;-53
2021/07/17 01:29:26;;;;;;;21.27;17.80;;;21.50;95.20;;;;;;5050529;28;20634;-52
2021/07/17 01:31:53;;;;;;;21.50;16.53;;;21.50;95.30;;;;;;5049764;28;20638;-52
2021/07/17 01:34:20;;;;;;;16.87;15.10;;;21.50;95.30;;;;;;5050527;28;20661;-52
2021/07/17 01:36:48;;;;;;;16.30;14.40;;;21.50;95.30;;;;;;5049936;28;20697;-52
2021/07/17 01:39:16;;;;;;;16.33;14.70;;;21.50;95.30;;;;;;5050637;28;20630;-52
2021/07/17 01:41:43;;;;;;;18.53;16.63;;;21.50;95.50;;;;;;5050794;28;20665;-52
2021/07/17 01:44:10;;;;;;;23.33;17.73;;;21.50;95.50;;;;;;5051316;28;21243;-52
2021/07/17 01:46:39;;;;;;;19.27;17.10;;;21.40;95.50;;;;;;5051285;28;20682;-52
2021/07/17 01:49:06;;;;;;;19.67;17.47;;;21.40;95.60;;;;;;5050593;28;20665;-52
2021/07/17 01:51:33;;;;;;;18.53;16.83;;;21.40;95.70;;;;;;5051240;28;20665;-52
2021/07/17 01:54:00;;;;;;;20.23;18.23;;;21.40;95.80;;;;;;5050952;28;20668;-52
2021/07/17 01:56:29;;;;;;;18.63;16.77;;;21.30;95.80;;;;;;5051212;28;20646;-52
2021/07/17 01:58:56;;;;;;;24.07;19.80;;;21.30;95.90;;;;;;5050797;28;20642;-52
2021/07/17 02:01:24;;;;;;;22.90;18.67;;;21.30;95.90;;;;;;5050449;28;20695;-52
2021/07/17 02:03:51;;;;;;;19.77;17.80;;;21.20;96.00;;;;;;5050834;28;20641;-52
2021/07/17 02:06:23;;;;;;;20.63;18.63;;;21.20;96.10;;;;;;5051063;28;20666;-52
2021/07/17 02:08:51;;;;;;;20.70;18.70;;;21.20;96.20;;;;;;5050900;28;20645;-52
2021/07/17 02:11:18;;;;;;;20.23;18.27;;;21.20;96.30;;;;;;5050849;28;20661;-51
2021/07/17 02:13:48;;;;;;;20.63;18.60;;;21.20;96.40;;;;;;5049767;28;20626;-51
2021/07/17 02:16:15;;;;;;;21.73;19.40;;;21.10;96.40;;;;;;5050572;28;20660;-52
2021/07/17 02:18:42;;;;;;;24.97;18.63;;;21.30;96.60;;;;;;5050813;28;20992;-53
2021/07/17 02:21:09;;;;;;;23.27;21.00;;;21.10;96.50;;;;;;5050545;28;20653;-51
2021/07/17 02:23:37;;;;;;;21.10;19.03;;;21.10;96.50;;;;;;5050693;28;20665;-51
2021/07/17 02:26:05;;;;;;;22.10;19.07;;;21.10;96.60;;;;;;5050440;28;20766;-51
2021/07/17 02:28:32;;;;;;;24.27;19.63;;;21.10;96.70;;;;;;5050966;28;20701;-51
2021/07/17 02:31:00;;;;;;;22.03;19.70;;;21.00;96.80;;;;;;5050680;28;20642;-52
2021/07/17 02:33:27;;;;;;;21.73;19.40;;;21.00;96.90;;;;;;5050789;28;20654;-53
2021/07/17 02:35:55;;;;;;;21.43;19.20;;;20.90;96.90;;;;;;5050605;28;20676;-51
2021/07/17 02:38:22;;;;;;;22.60;20.60;;;20.90;96.90;;;;;;5053544;28;20685;-52
2021/07/17 02:40:49;;;;;;;21.53;19.33;;;20.90;97.30;;;;;;5054308;28;21021;-53
2021/07/17 02:43:16;;;;;;;23.47;20.67;;;20.90;97.00;;;;;;5054287;28;20664;-53
2021/07/17 02:45:43;;;;;;;23.10;20.70;;;20.90;97.00;;;;;;5054578;28;20692;-52
2021/07/17 02:48:12;;;;;;;25.90;20.20;;;21.00;97.10;;;;;;5054319;28;21121;-52
2021/07/17 02:50:39;;;;;;;22.23;19.90;;;21.00;97.10;;;;;;5054439;28;20661;-52
2021/07/17 02:53:06;;;;;;;24.37;21.00;;;21.00;97.10;;;;;;5054231;28;20629;-52
2021/07/17 02:55:34;;;;;;;24.40;20.30;;;21.00;97.10;;;;;;5054304;28;20657;-52
2021/07/17 02:58:01;;;;;;;21.73;19.57;;;21.00;97.10;;;;;;5053614;28;20706;-52
2021/07/17 03:00:33;;;;;;;21.00;18.80;;;21.00;97.10;;;;;;5054273;28;20658;-54
2021/07/17 03:03:00;;;;;;;23.03;20.10;;;21.00;97.10;;;;;;5054080;28;20665;-52
2021/07/17 03:05:30;;;;;;;22.70;18.43;;;21.00;97.10;;;;;;5053889;28;20669;-52
2021/07/17 03:07:57;;;;;;;21.00;19.00;;;21.00;97.10;;;;;;5054039;28;20653;-53
2021/07/17 03:10:25;;;;;;;17.97;16.07;;;21.00;97.20;;;;;;5053679;28;20633;-53
2021/07/17 03:12:52;;;;;;;18.90;17.20;;;21.00;97.10;;;;;;5054032;28;20665;-53
2021/07/17 03:15:19;;;;;;;21.07;19.03;;;21.10;97.20;;;;;;5053576;28;20656;-53
2021/07/17 03:17:46;;;;;;;20.77;18.77;;;21.10;97.20;;;;;;5053816;28;20696;-53
2021/07/17 03:20:14;;;;;;;20.30;18.37;;;21.10;97.20;;;;;;5054133;28;21251;-53
2021/07/17 03:22:42;;;;;;;21.73;16.60;;;21.00;97.10;;;;;;5054145;28;20657;-53
2021/07/17 03:25:10;;;;;;;21.10;18.90;;;21.00;97.20;;;;;;5053876;28;20694;-53
2021/07/17 03:27:37;;;;;;;20.83;18.77;;;21.00;97.10;;;;;;5053561;28;20692;-53
2021/07/17 03:30:06;;;;;;;21.93;19.10;;;21.00;97.10;;;;;;5053455;28;20677;-53
2021/07/17 03:32:33;;;;;;;19.67;17.67;;;21.00;97.10;;;;;;5053385;28;20634;-53
2021/07/17 03:35:00;;;;;;;19.97;17.43;;;21.00;97.20;;;;;;5053799;28;20662;-53
2021/07/17 03:37:27;;;;;;;19.83;17.83;;;21.00;97.20;;;;;;5053225;28;20666;-53
2021/07/17 03:39:56;;;;;;;19.57;17.53;;;21.00;97.30;;;;;;5053905;28;21256;-53
2021/07/17 03:42:23;;;;;;;20.83;18.00;;;21.00;97.30;;;;;;5053028;28;20729;-53
2021/07/17 03:44:50;;;;;;;24.37;18.40;;;21.00;97.30;;;;;;5053837;28;21013;-53
2021/07/17 03:47:17;;;;;;;22.67;18.57;;;20.90;97.30;;;;;;5053051;28;20692;-53
2021/07/17 03:49:45;;;;;;;19.60;17.63;;;20.90;97.30;;;;;;5051082;28;20695;-53
2021/07/17 03:52:12;;;;;;;19.97;18.27;;;21.10;97.50;;;;;;5053155;28;20699;-53
2021/07/17 03:54:40;;;;;;;19.63;17.83;;;20.90;97.40;;;;;;5053094;28;20684;-53
2021/07/17 03:57:08;;;;;;;18.83;16.97;;;20.90;97.40;;;;;;5052937;28;20684;-52
2021/07/17 03:59:36;;;;;;;17.80;16.17;;;20.90;97.50;;;;;;5051926;28;20630;-52
2021/07/17 04:02:04;;;;;;;20.63;17.77;;;20.90;97.40;;;;;;5052360;28;21085;-52
2021/07/17 04:04:31;;;;;;;20.30;18.30;;;20.90;97.50;;;;;;5053128;28;20962;-52
2021/07/17 04:06:59;;;;;;;19.10;16.93;;;20.90;97.50;;;;;;5052974;28;20658;-53
2021/07/17 04:09:27;;;;;;;18.50;16.70;;;20.90;97.50;;;;;;5051281;28;20679;-52
2021/07/17 04:11:54;;;;;;;19.33;16.43;;;20.80;97.50;;;;;;5052455;28;21004;-52
2021/07/17 04:14:22;;;;;;;19.30;17.47;;;20.80;97.50;;;;;;5052728;28;20654;-52
2021/07/17 04:16:50;;;;;;;18.53;16.80;;;20.80;97.60;;;;;;5052242;28;20683;-53
2021/07/17 04:19:17;;;;;;;18.50;15.50;;;20.80;97.50;;;;;;5052645;28;20658;-52
2021/07/17 04:21:44;;;;;;;17.77;15.93;;;20.80;97.60;;;;;;5052604;28;20661;-53
2021/07/17 04:24:11;;;;;;;17.93;16.23;;;20.80;97.60;;;;;;5052943;28;20662;-52
2021/07/17 04:26:38;;;;;;;18.40;15.63;;;20.80;97.90;;;;;;5052431;28;20767;-53
2021/07/17 04:29:07;;;;;;;22.03;17.43;;;20.80;97.60;;;;;;5052370;28;20654;-53
2021/07/17 04:31:35;;;;;;;16.03;14.60;;;20.80;97.50;;;;;;5052139;28;20622;-52
2021/07/17 04:34:02;;;;;;;21.27;16.27;;;20.80;97.90;;;;;;5052443;28;20696;-52
2021/07/17 04:36:31;;;;;;;17.40;15.80;;;20.80;97.60;;;;;;5052191;28;20673;-53
2021/07/17 04:38:59;;;;;;;16.73;15.10;;;20.80;97.50;;;;;;5052132;28;20662;-52
2021/07/17 04:41:26;;;;;;;16.30;14.80;;;20.80;97.60;;;;;;5051820;28;20671;-52
2021/07/17 04:43:53;;;;;;;16.33;14.93;;;20.80;97.60;;;;;;5051547;28;20665;-52
2021/07/17 04:46:20;;;;;;;16.80;15.30;;;20.80;97.60;;;;;;5052188;28;21227;-52
2021/07/17 04:48:49;;;;;;;17.57;15.87;;;20.80;97.60;;;;;;5052102;28;20665;-51
2021/07/17 04:51:16;;;;;;;17.03;15.27;;;20.80;97.60;;;;;;5052122;28;20645;-52
2021/07/17 04:53:43;;;;;;;17.37;15.63;;;20.80;97.60;;;;;;5051848;28;20695;-52
2021/07/17 04:56:10;;;;;;;16.60;14.97;;;20.80;97.60;;;;;;5051138;28;20657;-52
2021/07/17 04:58:37;;;;;;;16.67;15.00;;;20.90;97.70;;;;;;5051646;28;20676;-52
2021/07/17 05:01:05;;;;;;;17.37;15.67;;;20.80;97.70;;;;;;5050813;28;20681;-52
2021/07/17 05:03:32;;;;;;;16.17;14.47;;;20.80;97.70;;;;;;5051671;28;20691;-52
2021/07/17 05:06:00;;;;;;;14.50;13.30;;;20.80;97.70;;;;;;5050485;28;20712;-52
2021/07/17 05:08:28;;;;;;;16.87;15.27;;;20.80;97.70;;;;;;5051611;28;20678;-52
2021/07/17 05:10:55;;;;;;;14.90;13.40;;;20.80;97.70;;;;;;5051469;28;20653;-52
2021/07/17 05:13:24;;;;;;;16.80;15.07;;;20.70;97.70;;;;;;5050708;28;20625;-52
2021/07/17 05:15:51;;;;;;;17.10;15.47;;;20.70;97.70;;;;;;5051630;28;20642;-52
2021/07/17 05:18:18;;;;;;;16.60;15.07;;;20.70;97.70;;;;;;5051212;28;20661;-52
2021/07/17 05:20:45;;;;;;;14.63;13.00;;;20.70;97.70;;;;;;5051548;28;20658;-52
2021/07/17 05:23:16;;;;;;;17.00;15.20;;;20.70;97.70;;;;;;5051406;28;20652;-52
2021/07/17 05:25:43;;;;;;;17.10;15.53;;;20.70;97.70;;;;;;5051333;28;21263;-52
2021/07/17 05:28:10;;;;;;;16.80;13.50;;;20.80;97.80;;;;;;5051473;28;21061;-51
2021/07/17 05:30:38;;;;;;;19.03;14.10;;;20.70;97.70;;;;;;5051133;28;20662;-52
2021/07/17 05:33:05;;;;;;;15.93;14.63;;;20.70;97.80;;;;;;5051245;28;20680;-52
2021/07/17 05:35:33;;;;;;;17.30;13.67;;;20.70;97.80;;;;;;5050358;28;20633;-52
2021/07/17 05:38:00;;;;;;;16.03;14.43;;;20.70;97.80;;;;;;5051114;28;20670;-52
2021/07/17 05:40:29;;;;;;;13.10;11.80;;;20.90;97.90;;;;;;5050990;28;21011;-52
2021/07/17 05:42:56;;;;;;;16.13;14.50;;;20.70;97.80;;;;;;5051000;28;20662;-52
2021/07/17 05:45:24;;;;;;;15.30;13.70;;;20.80;97.80;;;;;;5050927;28;20630;-53
2021/07/17 05:47:51;;;;;;;15.33;13.87;;;20.70;97.70;;;;;;5050704;28;20685;-53
2021/07/17 05:50:19;;;;;;;15.63;14.10;;;20.80;97.80;;;;;;5051096;28;21280;-53
2021/07/17 05:52:46;;;;;;;16.83;15.07;;;20.80;97.80;;;;;;5051056;28;20641;-53
2021/07/17 05:55:13;;;;;;;14.90;13.50;;;20.80;97.80;;;;;;5050598;28;20657;-52
2021/07/17 05:57:42;;;;;;;15.33;13.93;;;20.80;97.80;;;;;;5050952;28;20657;-53
2021/07/17 06:00:10;;;;;;;16.87;15.17;;;20.80;97.80;;;;;;5050604;28;20657;-53
2021/07/17 06:02:39;;;;;;;14.90;13.40;;;20.80;97.80;;;;;;5050532;28;20658;-52
2021/07/17 06:05:07;;;;;;;15.77;14.13;;;20.90;97.80;;;;;;5049604;28;20625;-52
2021/07/17 06:07:34;;;;;;;16.53;14.90;;;20.80;97.80;;;;;;5051195;28;20698;-53
2021/07/17 06:10:01;;;;;;;14.80;13.33;;;20.80;97.80;;;;;;5051105;28;20649;-53
2021/07/17 06:12:29;;;;;;;16.27;14.53;;;20.80;97.80;;;;;;5052099;28;20993;-53
2021/07/17 06:14:57;;;;;;;14.30;13.00;;;20.80;97.90;;;;;;5054854;28;20658;-53
2021/07/17 06:17:24;;;;;;;13.33;12.10;;;20.80;97.90;;;;;;5054920;28;20670;-53
2021/07/17 06:19:52;;;;;;;14.07;12.80;;;20.80;97.80;;;;;;5054797;28;21015;-53
2021/07/17 06:22:19;;;;;;;15.20;13.70;;;20.80;97.80;;;;;;5055092;28;20669;-54
2021/07/17 06:24:46;;;;;;;14.27;12.97;;;20.80;97.80;;;;;;5054477;28;20630;-53
2021/07/17 06:27:13;;;;;;;14.73;13.33;;;20.80;97.80;;;;;;5054490;28;20693;-53
2021/07/17 06:29:40;;;;;;;14.70;13.23;;;20.90;97.90;;;;;;5054359;28;20646;-53
2021/07/17 06:32:09;;;;;;;14.13;12.90;;;20.80;97.80;;;;;;5049926;28;20673;-53
2021/07/17 06:34:36;;;;;;;13.20;11.90;;;20.80;97.90;;;;;;5054806;28;21211;-53
2021/07/17 06:37:04;;;;;;;14.07;12.87;;;20.80;97.90;;;;;;5054133;28;20678;-53
2021/07/17 06:39:31;;;;;;;14.47;12.70;;;20.90;98.00;;;;;;5054630;28;21026;-53
2021/07/17 06:41:58;;;;;;;14.97;13.57;;;20.80;97.90;;;;;;5054451;28;20672;-53
2021/07/17 06:44:25;;;;;;;14.00;12.80;;;20.90;97.90;;;;;;5054663;28;20687;-53
2021/07/17 06:46:53;;;;;;;14.03;12.60;;;20.90;97.90;;;;;;5054377;28;21254;-52
2021/07/17 06:49:21;;;;;;;14.53;13.03;;;20.90;97.90;;;;;;5054253;28;20658;-52
2021/07/17 06:51:48;;;;;;;15.00;11.50;;;21.00;97.90;;;;;;5054251;28;20661;-52
2021/07/17 06:54:16;;;;;;;15.00;12.77;;;21.00;97.90;;;;;;5053890;28;21027;-52
2021/07/17 06:56:43;;;;;;;14.37;12.10;;;21.00;97.80;;;;;;5053697;28;20674;-52
2021/07/17 06:59:10;;;;;;;14.80;13.40;;;21.00;97.80;;;;;;5054479;28;20645;-53
2021/07/17 07:01:37;;;;;;;17.03;12.80;;;20.90;97.80;;;;;;5053673;28;20655;-52
2021/07/17 07:04:05;;;;;;;14.13;12.93;;;20.90;97.80;;;;;;5053959;28;20670;-51
2021/07/17 07:06:33;;;;;;;13.03;11.60;;;20.90;97.80;;;;;;5053870;28;20704;-53
2021/07/17 07:09:00;;;;;;;13.07;11.67;;;20.90;97.80;;;;;;5054315;28;20653;-52
2021/07/17 07:11:28;;;;;;;14.40;13.10;;;21.00;97.90;;;;;;5053664;28;21044;-53
2021/07/17 07:13:55;;;;;;;14.67;13.20;;;21.00;97.80;;;;;;5054079;28;20666;-54
2021/07/17 07:16:22;;;;;;;13.93;12.53;;;21.00;97.70;;;;;;5053709;28;21199;-51
2021/07/17 07:18:49;;;;;;;11.90;10.67;;;21.10;97.70;;;;;;5051408;28;20626;-52
2021/07/17 07:21:16;;;;;;;13.17;11.97;;;21.00;98.00;;;;;;5054011;28;20654;-52
2021/07/17 07:23:45;;;;;;;13.13;12.10;;;21.10;97.80;;;;;;5052477;28;20622;-52
2021/07/17 07:26:12;;;;;;;15.97;12.37;;;21.10;97.80;;;;;;5053590;28;20630;-52
2021/07/17 07:28:39;;;;;;;13.50;12.30;;;21.10;97.70;;;;;;5053765;28;20662;-52
2021/07/17 07:31:06;;;;;;;12.90;11.10;;;21.10;97.70;;;;;;5053958;28;21206;-53
2021/07/17 07:33:34;;;;;;;15.63;12.00;;;21.10;97.70;;;;;;5053618;28;20665;-52
2021/07/17 07:36:01;;;;;;;13.50;12.27;;;21.20;97.80;;;;;;5053345;28;20658;-52
2021/07/17 07:38:28;;;;;;;16.50;12.97;;;21.10;97.60;;;;;;5052906;28;20697;-51
2021/07/17 07:40:57;;;;;;;12.30;11.10;;;21.20;97.50;;;;;;5052857;28;20668;-52
2021/07/17 07:43:24;;;;;;;15.83;11.60;;;21.20;97.60;;;;;;5050264;28;21055;-52
2021/07/17 07:45:51;;;;;;;14.60;12.40;;;21.30;97.50;;;;;;5051974;28;20725;-53
2021/07/17 07:48:18;;;;;;;12.17;10.77;;;21.30;97.40;;;;;;5052337;28;20706;-52
2021/07/17 07:50:45;;;;;;;12.77;11.47;;;21.40;97.30;;;;;;5052632;28;20995;-52
2021/07/17 07:53:13;;;;;;;10.07;9.13;;;21.40;97.20;;;;;;5053298;28;20661;-50
2021/07/17 07:55:40;;;;;;;12.10;9.80;;;21.50;97.10;;;;;;5052931;28;20746;-52
2021/07/17 07:58:08;;;;;;;10.90;10.03;;;21.50;97.00;;;;;;5052641;28;20685;-52
2021/07/17 08:00:35;;;;;;;10.43;8.67;;;21.60;96.90;;;;;;5053292;28;20961;-53
2021/07/17 08:03:03;;;;;;;10.00;9.13;;;21.60;96.80;;;;;;5052758;28;20665;-54
2021/07/17 08:05:30;;;;;;;10.73;9.77;;;21.70;96.50;;;;;;5053291;28;20633;-54
2021/07/17 08:07:58;;;;;;;10.47;9.50;;;21.60;96.30;;;;;;5052487;28;20697;-51
2021/07/17 08:10:25;;;;;;;11.23;9.63;;;21.60;96.30;;;;;;5052584;28;20657;-50
2021/07/17 08:12:52;;;;;;;11.10;10.00;;;21.60;96.40;;;;;;5052565;28;20661;-51
2021/07/17 08:15:21;;;;;;;11.43;10.27;;;21.70;96.40;;;;;;5052373;28;20657;-51
2021/07/17 08:17:48;;;;;;;10.73;9.73;;;21.70;96.50;;;;;;5052588;28;21227;-51
2021/07/17 08:20:16;;;;;;;12.23;9.13;;;21.80;96.50;;;;;;5052883;28;20680;-52
2021/07/17 08:22:43;;;;;;;10.20;8.97;;;21.60;96.40;;;;;;5052375;28;21170;-50
2021/07/17 08:25:12;;;;;;;10.43;9.53;;;21.60;96.30;;;;;;5052505;28;20621;-51
2021/07/17 08:27:39;;;;;;;11.83;10.37;;;21.60;96.50;;;;;;5052413;28;20702;-50
2021/07/17 08:30:09;;;;;;;9.50;8.80;;;21.50;96.40;;;;;;5050304;28;20731;-51
2021/07/17 08:32:37;;;;;;;11.60;10.13;;;21.50;96.60;;;;;;5048663;28;21033;-50
2021/07/17 08:35:06;;;;;;;10.03;8.90;;;21.50;96.80;;;;;;5051448;28;20661;-51
2021/07/17 08:37:34;;;;;;;10.33;9.33;;;21.50;96.60;;;;;;5051921;28;20712;-51
2021/07/17 08:40:02;;;;;;;9.90;9.10;;;21.70;96.90;;;;;;5052014;28;20650;-50
2021/07/17 08:42:29;;;;;;;12.17;9.10;;;21.50;96.80;;;;;;5052194;28;20633;-51
2021/07/17 08:44:56;;;;;;;10.60;9.80;;;21.60;97.10;;;;;;5051182;28;20657;-52
2021/07/17 08:47:29;;;;;;;10.57;9.70;;;21.70;96.60;;;;;;5049998;28;20697;-50
2021/07/17 08:49:58;;;;;;;10.27;9.23;;;21.70;96.40;;;;;;5051830;28;20718;-48
2021/07/17 08:52:27;;;;;;;11.37;10.23;;;21.70;96.40;;;;;;5050633;28;20645;-49
2021/07/17 08:54:56;;;;;;;10.43;9.53;;;21.70;96.50;;;;;;5051980;28;20626;-48
2021/07/17 08:57:23;;;;;;;11.10;10.10;;;21.70;96.50;;;;;;5051560;28;20689;-49
2021/07/17 08:59:51;;;;;;;12.33;9.57;;;21.80;96.60;;;;;;5051549;28;20645;-50
2021/07/17 09:02:18;;;;;;;10.83;9.73;;;21.80;96.60;;;;;;5051348;28;20665;-50
2021/07/17 09:04:45;;;;;;;12.90;9.20;;;21.90;96.40;;;;;;5051374;28;20623;-51
2021/07/17 09:07:14;;;;;;;10.87;9.93;;;21.90;96.30;;;;;;5050887;28;20696;-50
2021/07/17 09:09:42;;;;;;;9.77;8.80;;;21.90;96.20;;;;;;5051407;28;21210;-49
2021/07/17 09:12:21;;;;;;;10.77;9.77;;;22.00;96.10;;;;;;5051444;28;20680;-50
2021/07/17 09:14:48;;;;;;;10.63;9.83;;;22.00;96.00;;;;;;5051168;28;20658;-50
2021/07/17 09:17:23;;;;;;;10.73;9.77;;;22.00;96.00;;;;;;5050842;28;20692;-49
2021/07/17 09:19:54;;;;;;;11.53;10.53;;;22.10;95.90;;;;;;5051145;28;20662;-49
2021/07/17 09:22:33;;;;;;;11.23;10.23;;;22.10;95.80;;;;;;5051046;28;21202;-49
2021/07/17 09:25:08;;;;;;;12.27;11.07;;;22.10;96.00;;;;;;5050369;28;20672;-50
2021/07/17 09:27:35;;;;;;;11.10;10.17;;;22.10;95.70;;;;;;5050657;28;20693;-49
2021/07/17 09:30:03;;;;;;;11.93;10.93;;;22.20;95.70;;;;;;5049089;28;20662;-49
2021/07/17 09:32:30;;;;;;;12.07;10.30;;;22.20;95.50;;;;;;5050089;28;20705;-48
2021/07/17 09:35:09;;;;;;;13.53;12.27;;;22.30;95.50;;;;;;5051022;28;20634;-49
2021/07/17 09:37:37;;;;;;;12.87;11.77;;;22.40;95.40;;;;;;5050369;28;20690;-49
2021/07/17 09:40:07;;;;;;;11.10;10.20;;;22.50;95.40;;;;;;5050578;28;20662;-49
2021/07/17 09:42:34;;;;;;;10.13;9.17;;;22.60;95.10;;;;;;5050454;28;20733;-49
2021/07/17 09:45:01;;;;;;;10.30;9.27;;;22.70;94.90;;;;;;5050243;28;20664;-49
2021/07/17 09:47:29;;;;;;;9.87;8.87;;;22.70;94.80;;;;;;5049892;28;20701;-49
2021/07/17 09:50:11;;;;;;;11.33;10.23;;;22.70;94.80;;;;;;5050247;28;21016;-52
2021/07/17 09:52:42;;;;;;;11.20;10.10;;;22.70;94.80;;;;;;5049323;28;20658;-50
2021/07/17 09:55:11;;;;;;;12.27;11.03;;;22.70;94.70;;;;;;5049266;28;20653;-51
2021/07/17 09:57:39;;;;;;;10.30;9.30;;;22.70;94.70;;;;;;5047016;28;21056;-51
2021/07/17 10:00:07;;;;;;;12.73;10.80;;;22.80;94.60;;;;;;5049596;28;20747;-51
2021/07/17 10:02:36;;;;;;;11.33;10.23;;;22.90;94.70;;;;;;5049257;28;20662;-50
2021/07/17 10:05:03;;;;;;;10.73;9.73;;;22.90;94.60;;;;;;5049656;28;20625;-49
2021/07/17 10:07:30;;;;;;;11.43;10.43;;;23.00;94.40;;;;;;5048518;28;21054;-51
2021/07/17 10:09:59;;;;;;;10.80;9.70;;;23.00;94.10;;;;;;5050124;28;20629;-51
2021/07/17 10:12:32;;;;;;;12.10;10.87;;;23.10;94.30;;;;;;5050169;28;21090;-50
2021/07/17 10:14:59;;;;;;;11.23;10.17;;;23.10;94.10;;;;;;5049701;28;20656;-49
2021/07/17 10:17:33;;;;;;;11.97;10.77;;;23.20;94.10;;;;;;5049407;28;20983;-49
2021/07/17 10:20:01;;;;;;;11.67;10.60;;;23.20;94.00;;;;;;5050117;28;20630;-50
2021/07/17 10:22:28;;;;;;;10.73;9.40;;;23.30;93.90;;;;;;5049911;28;20672;-50
2021/07/17 10:24:55;;;;;;;10.90;9.93;;;23.40;93.40;;;;;;5050329;28;20975;-49
2021/07/17 10:27:24;;;;;;;10.73;9.73;;;23.40;93.40;;;;;;5050249;28;21083;-51
2021/07/17 10:29:51;;;;;;;11.23;10.33;;;23.40;93.60;;;;;;5049825;28;21255;-50
2021/07/17 10:32:19;;;;;;;12.53;11.30;;;23.50;93.60;;;;;;5050157;28;20668;-50
2021/07/17 10:34:46;;;;;;;11.43;10.30;;;23.50;93.60;;;;;;5049493;28;20680;-51
2021/07/17 10:37:15;;;;;;;11.40;10.20;;;23.60;93.20;;;;;;5049774;28;20697;-51
2021/07/17 10:39:44;;;;;;;12.67;11.30;;;23.50;93.10;;;;;;5049271;28;20614;-51
2021/07/17 10:42:12;;;;;;;11.43;10.30;;;23.50;93.30;;;;;;5048654;28;20714;-52
2021/07/17 10:44:46;;;;;;;10.40;9.50;;;23.50;93.30;;;;;;5049985;28;20630;-49
2021/07/17 10:47:13;;;;;;;13.50;10.33;;;23.50;93.50;;;;;;5049996;28;20686;-50
2021/07/17 10:49:42;;;;;;;11.53;10.53;;;23.60;93.40;;;;;;5049944;28;20682;-50
2021/07/17 10:52:09;;;;;;;10.83;9.83;;;23.60;93.40;;;;;;5050369;28;20672;-50
2021/07/17 10:54:37;;;;;;;11.77;10.67;;;23.60;93.60;;;;;;5050249;28;20630;-51
2021/07/17 10:57:05;;;;;;;10.87;9.90;;;23.70;93.30;;;;;;5050320;28;20685;-50
2021/07/17 10:59:46;;;;;;;12.50;11.23;;;23.70;93.20;;;;;;5052869;28;20650;-50
2021/07/17 11:02:23;;;;;;;12.37;11.17;;;23.80;92.80;;;;;;5053533;28;20649;-50
2021/07/17 11:04:55;;;;;;;11.87;10.53;;;23.80;93.10;;;;;;5051762;28;20625;-50
2021/07/17 11:07:42;;;;;;;12.87;11.87;;;23.80;93.30;;;;;;5033033;28;20729;-50
2021/07/17 11:10:16;;;;;;;13.03;11.73;;;23.90;93.40;;;;;;5033350;28;20687;-50
2021/07/17 11:13:02;;;;;;;12.20;11.30;;;24.00;93.40;;;;;;5033627;28;20639;-51
2021/07/17 11:15:51;;;;;;;12.90;11.70;;;24.10;93.00;;;;;;5049182;28;20656;-51
2021/07/17 11:18:21;;;;;;;12.47;11.53;;;24.30;92.90;;;;;;5053330;28;20650;-50
2021/07/17 11:20:49;;;;;;;12.17;11.03;;;24.30;92.50;;;;;;5053042;28;20629;-50
2021/07/17 11:23:18;;;;;;;12.60;11.33;;;24.30;92.50;;;;;;5053322;28;20674;-50
2021/07/17 11:25:55;;;;;;;14.10;12.90;;;24.30;92.40;;;;;;5052541;28;20731;-51
2021/07/17 11:29:02;;;;;;;16.40;13.20;;;24.30;92.40;;;;;;5052755;28;20705;-51
2021/07/17 11:31:53;;;;;;;13.20;12.00;;;24.30;92.40;;;;;;5052302;28;21476;-49
2021/07/17 11:34:45;;;;;;;12.50;11.30;;;24.30;92.70;;;;;;5052851;28;20664;-50
2021/07/17 11:37:14;;;;;;;14.37;12.57;;;24.30;93.00;;;;;;5052690;28;20761;-52
2021/07/17 11:39:45;;;;;;;12.57;11.30;;;24.40;92.50;;;;;;5053195;28;20618;-51
2021/07/17 11:42:13;;;;;;;11.93;10.93;;;24.50;92.40;;;;;;5052496;28;20718;-52
2021/07/17 11:44:41;;;;;;;12.63;11.37;;;24.60;92.40;;;;;;5052713;28;20630;-52
2021/07/17 11:47:12;;;;;;;12.47;11.43;;;24.70;92.40;;;;;;5052719;28;20707;-51
2021/07/17 11:49:40;;;;;;;14.43;13.03;;;24.70;92.50;;;;;;5052269;28;20697;-53
2021/07/17 11:52:08;;;;;;;12.20;11.13;;;24.80;92.00;;;;;;5052695;28;20672;-50
2021/07/17 11:54:36;;;;;;;13.53;12.13;;;24.70;92.00;;;;;;5051295;28;20665;-51
2021/07/17 11:57:11;;;;;;;14.67;13.17;;;24.60;92.10;;;;;;5052079;28;20696;-51
2021/07/17 11:59:39;;;;;;;13.70;12.37;;;24.80;92.20;;;;;;5052255;28;20656;-51
2021/07/17 12:02:11;;;;;;;15.73;13.57;;;24.90;92.30;;;;;;5048731;28;20666;-52
2021/07/17 12:04:41;;;;;;;16.63;12.90;;;24.80;92.30;;;;;;5051479;28;20622;-52
2021/07/17 12:07:11;;;;;;;15.87;14.23;;;24.90;92.30;;;;;;5050831;28;20704;-50
2021/07/17 12:09:41;;;;;;;16.27;14.57;;;25.10;92.20;;;;;;5031050;28;20764;-51
2021/07/17 12:12:29;;;;;;;14.27;12.87;;;25.10;92.10;;;;;;5031728;28;21050;-50
2021/07/17 12:14:58;;;;;;;15.57;14.27;;;25.20;92.10;;;;;;5042020;28;20664;-51
2021/07/17 12:17:25;;;;;;;15.70;14.40;;;25.20;91.70;;;;;;5051235;28;20689;-51
2021/07/17 12:20:01;;;;;;;12.80;11.70;;;25.20;92.10;;;;;;5051969;28;20662;-51
2021/07/17 12:22:28;;;;;;;13.97;12.70;;;25.30;92.00;;;;;;5051261;28;20657;-52
2021/07/17 12:25:07;;;;;;;14.17;12.77;;;25.40;91.90;;;;;;5050636;28;20634;-51
2021/07/17 12:27:49;;;;;;;13.97;12.63;;;25.50;91.80;;;;;;5051335;28;20658;-52
2021/07/17 12:30:17;;;;;;;14.53;13.23;;;25.50;91.40;;;;;;5053393;28;20679;-53
2021/07/17 12:32:44;;;;;;;14.30;13.03;;;25.50;91.30;;;;;;5048372;28;20619;-53
2021/07/17 12:35:19;;;;;;;15.10;13.60;;;25.50;91.40;;;;;;5045119;28;20626;-55